Bodega Bay - 48NM North Northwest of San Francisco, CA current weather conditions

sailwx.info

Wind from 310 at 21 knots gusting 25

Wave height 2.3 meters (7 feet), 13 second period

Air temperature 10.4° C
Water temperature 9.6° C

Last reported at 2015-Apr-25 21:50 UTC.
Time now 2015-Apr-25 23:16 UTC

Location: N 38°12' W 123°18'.
View on Google Maps.

See reports from other nearby stations

  
Tides and Currents Weather Stations Pressure Air Temp Water Temp Dewpoint Dewpoint Depression Visibility Wind Speed Wind Dir Waves Ship Positions
date/time (UTC)wind fromknots sea level pressurealtimeterstation pressurevisibilityair tempwater tempwave heightnotes
2015-Apr-25 21:50 310 21 gusting 25 10.4 9.6 2.3
2015-Apr-25 20:50 310 19 gusting 23 10.4 9.6 2.5
2015-Apr-25 19:50 310 21 gusting 25 10.2 9.6 2.3
2015-Apr-25 18:50 310 19 gusting 23 10.1 9.6 2.2
2015-Apr-25 17:50 320 19 gusting 23 10.0 9.6 2.5
2015-Apr-25 16:50 320 19 gusting 23 9.8 9.6 2.3
2015-Apr-25 15:50 320 19 gusting 25 9.9 9.5 2.5
2015-Apr-25 14:50 320 19 gusting 23 10.0 9.5 2.4
2015-Apr-25 13:50 310 21 gusting 27 9.2 9.6 2.5
2015-Apr-25 12:50 320 19 gusting 23 9.8 9.6 2.4
2015-Apr-25 11:50 290 9 gusting 13 11.4 9.6 2.4
2015-Apr-25 10:50 300 17 gusting 21 11.8 9.6 2.4
2015-Apr-25 09:50 290 13 gusting 17 11.6 9.7 2.5
2015-Apr-25 08:50 270 11 gusting 11 11.3 9.7 2.4
2015-Apr-25 07:50 280 13 gusting 17 11.7 9.7 2.5
2015-Apr-25 06:50 240 15 gusting 17 11.8 9.8 2.3
2015-Apr-25 05:50 230 15 gusting 17 11.8 9.9 2.3
2015-Apr-25 04:50 230 11 gusting 13 11.610.0 1.9
2015-Apr-25 03:50 140 7 gusting 11 10.4 9.8 2.3
2015-Apr-25 02:50 200 3 gusting 5 10.5 9.8 2.0
2015-Apr-25 01:50 170 1 gusting 3 10.4 9.8 1.7
2015-Apr-25 00:50 240 3 gusting 3 10.6 9.9 1.7
2015-Apr-24 22:50 280 9 gusting 11 10.9 9.9 1.9
2015-Apr-24 21:50 300 9 gusting 11 10.8 9.8 1.9
2015-Apr-24 20:50 300 11 gusting 13 10.7 9.7 1.7
2015-Apr-24 19:50 300 11 gusting 13 10.5 9.6 1.6
2015-Apr-24 18:50 310 15 gusting 17 10.3 9.6 1.6
2015-Apr-24 17:50 310 15 gusting 17 10.1 9.5 1.6
2015-Apr-24 16:50 310 15 gusting 19 10.0 9.5 1.6
2015-Apr-24 15:50 310 17 gusting 19 10.0 9.5 1.8
2015-Apr-24 14:50 320 15 gusting 19 9.6 9.3 2.1
2015-Apr-24 13:50 320 19 gusting 25 9.1 9.3 2.2
2015-Apr-24 12:50 320 19 gusting 21 8.9 9.3 2.0
2015-Apr-24 11:50 320 21 gusting 25 9.2 9.3 2.0
2015-Apr-24 10:50 320 19 gusting 23 9.7 9.3 2.2
2015-Apr-24 09:50 320 15 gusting 17 9.9 9.3 2.0
2015-Apr-24 08:50 320 17 gusting 21 10.0 9.3 2.2
2015-Apr-24 07:50 320 17 gusting 23 10.3 9.4 2.2
2015-Apr-24 05:50 310 23 gusting 27 10.5 9.6 2.9
2015-Apr-24 04:50 320 27 gusting 33 10.5 9.7 3.1
2015-Apr-24 03:50 320 27 gusting 34 10.6 9.8 3.3
2015-Apr-24 02:50 320 31 gusting 36 10.7 9.8 3.5
2015-Apr-24 01:50 320 31 gusting 40 10.8 9.9 3.5
2015-Apr-24 00:50 320 31 gusting 38 10.810.1 3.9